Terminal Aerodrome Forecast
Issued by NWS

Home | Current Version | Previous Version | Text Only | Print | Product List | Glossary On
Versions: 1 2 3 4 5 6 7 8 9 10 11 12
000
FTUS45 KABQ 221700
TAFAEG
TAF
KAEG 221739Z 2218/2318 26012KT P6SM FEW050 SCT090
     FM221900 30015G25KT P6SM SCT050 SCT080
     FM222100 31028G38KT P6SM VCSH SCT050 SCT080
     FM230200 33022G32KT P6SM VCSH SCT040 BKN070
     FM230900 36015G25KT P6SM SCT040 SCT060=

USA.gov is the U.S. government's official web portal to all federal, state and local government web resources and services.